Time;durP1;ratioP1;P1;durP2;ratioP2;P2;SDS_P1;SDS_P2;PMS_P1;PMS_P2;Temp;Humidity;BMP_temperature;BMP_pressure;BME280_temperature;BME280_humidity;BME280_pressure;Samples;Min_cycle;Max_cycle;Signal;HPM_P1;HPM_P2
2021/10/14 00:02:23;;;;;;;6.93;3.25;;;6.80;90.60;;;;;;4981856;28;20045;-76
2021/10/14 00:04:49;;;;;;;6.15;3.20;;;6.90;90.60;;;;;;4981791;28;20023;-76
2021/10/14 00:07:15;;;;;;;4.00;2.60;;;6.90;90.50;;;;;;4982135;28;20031;-76
2021/10/14 00:09:41;;;;;;;4.78;3.10;;;6.90;90.20;;;;;;4981685;28;20019;-76
2021/10/14 00:12:07;;;;;;;5.40;2.95;;;6.90;90.00;;;;;;4966027;28;20041;-76
2021/10/14 00:14:32;;;;;;;7.95;3.50;;;6.90;90.00;;;;;;4981783;28;20042;-78
2021/10/14 00:16:58;;;;;;;6.45;3.40;;;6.90;89.20;;;;;;4980953;28;20078;-76
2021/10/14 00:19:24;;;;;;;7.57;3.75;;;6.80;89.60;;;;;;4983116;28;20267;-76
2021/10/14 00:21:50;;;;;;;6.78;3.28;;;6.80;89.60;;;;;;4983103;28;20023;-76
2021/10/14 00:24:15;;;;;;;7.00;3.53;;;6.80;89.50;;;;;;4982836;28;20034;-76
2021/10/14 00:26:41;;;;;;;5.85;3.22;;;6.80;90.00;;;;;;4981921;28;20074;-76
2021/10/14 00:29:07;;;;;;;7.03;3.28;;;6.80;89.80;;;;;;4981880;28;20050;-76
2021/10/14 00:31:33;;;;;;;4.25;3.22;;;6.80;90.00;;;;;;4984170;28;20053;-76
2021/10/14 00:33:59;;;;;;;5.18;3.05;;;6.80;89.80;;;;;;4985219;28;20029;-76
2021/10/14 00:36:25;;;;;;;7.80;2.90;;;6.80;90.10;;;;;;4969585;28;20049;-76
2021/10/14 00:38:50;;;;;;;8.20;3.58;;;6.80;90.00;;;;;;4985544;28;20054;-76
2021/10/14 00:41:16;;;;;;;4.95;3.50;;;6.80;90.10;;;;;;4969508;28;20038;-76
2021/10/14 00:43:42;;;;;;;7.07;3.53;;;6.80;90.10;;;;;;4969161;28;20115;-76
2021/10/14 00:46:17;;;;;;;7.57;3.22;;;6.80;90.20;;;;;;4985440;28;20038;-76
2021/10/14 00:48:43;;;;;;;5.93;3.72;;;6.90;90.40;;;;;;4969257;28;20089;-76
2021/10/14 00:51:10;;;;;;;7.07;4.00;;;6.90;90.40;;;;;;4985458;28;20349;-76
2021/10/14 00:53:39;;;;;;;7.43;3.63;;;6.90;90.60;;;;;;5001308;28;20029;-76
2021/10/14 00:56:06;;;;;;;6.38;3.05;;;6.90;90.60;;;;;;4969176;28;20037;-76
2021/10/14 00:58:36;;;;;;;6.57;3.30;;;6.90;90.50;;;;;;4953192;28;20222;-76
2021/10/14 01:01:03;;;;;;;7.25;3.20;;;7.00;90.40;;;;;;4969782;28;20038;-76
2021/10/14 01:03:29;;;;;;;5.55;3.25;;;7.00;90.30;;;;;;4968729;28;20018;-76
2021/10/14 01:05:56;;;;;;;7.03;3.53;;;7.00;90.20;;;;;;5001391;28;20073;-75
2021/10/14 01:08:21;;;;;;;5.72;3.20;;;6.90;90.00;;;;;;4968958;28;20288;-76
2021/10/14 01:10:47;;;;;;;4.72;3.03;;;6.90;90.30;;;;;;4968466;28;20101;-75
2021/10/14 01:13:13;;;;;;;8.63;3.15;;;6.90;90.10;;;;;;4984721;28;20054;-75
2021/10/14 01:15:39;;;;;;;5.85;3.67;;;6.80;90.00;;;;;;4968759;28;20026;-76
2021/10/14 01:18:05;;;;;;;7.50;3.67;;;6.80;90.00;;;;;;5000336;28;20033;-76
2021/10/14 01:20:30;;;;;;;6.38;3.20;;;6.80;90.20;;;;;;4984974;28;20026;-76
2021/10/14 01:22:57;;;;;;;9.52;4.43;;;6.70;90.10;;;;;;4968442;28;20045;-75
2021/10/14 01:25:24;;;;;;;6.82;3.75;;;6.70;90.30;;;;;;4985844;28;20027;-76
2021/10/14 01:27:50;;;;;;;7.88;3.55;;;6.70;90.50;;;;;;4968752;28;20054;-76
2021/10/14 01:30:16;;;;;;;8.30;3.87;;;6.80;90.70;;;;;;4984870;28;20038;-76
2021/10/14 01:32:44;;;;;;;7.38;3.60;;;6.80;90.80;;;;;;4968347;28;20115;-76
2021/10/14 01:35:10;;;;;;;9.45;4.13;;;6.80;90.80;;;;;;4984376;28;20088;-76
2021/10/14 01:37:35;;;;;;;8.18;4.05;;;6.80;91.00;;;;;;4983910;23;20046;-75
2021/10/14 01:40:03;;;;;;;6.47;4.07;;;6.80;91.00;;;;;;4975407;28;20058;-74
2021/10/14 01:42:29;;;;;;;8.10;4.57;;;6.80;90.90;;;;;;4966481;28;20034;-75
2021/10/14 01:44:55;;;;;;;6.75;4.07;;;6.80;91.10;;;;;;4998492;28;20321;-75
2021/10/14 01:47:20;;;;;;;9.52;4.05;;;6.90;91.20;;;;;;4984333;28;20265;-75
2021/10/14 01:49:46;;;;;;;6.80;3.47;;;6.90;91.30;;;;;;4983327;28;20062;-75
2021/10/14 01:52:12;;;;;;;9.15;3.70;;;6.90;91.20;;;;;;4983140;28;20410;-75
2021/10/14 01:54:38;;;;;;;8.10;3.75;;;7.00;91.30;;;;;;4984017;28;20034;-76
2021/10/14 01:57:03;;;;;;;8.85;4.97;;;6.90;91.20;;;;;;4982914;28;20094;-75
2021/10/14 01:59:29;;;;;;;7.82;4.28;;;7.00;91.30;;;;;;4983193;28;20344;-75
2021/10/14 02:01:55;;;;;;;8.70;4.78;;;7.00;91.30;;;;;;4982990;28;20046;-75
2021/10/14 02:04:21;;;;;;;10.25;3.85;;;7.00;91.20;;;;;;4982729;28;20114;-75
2021/10/14 02:06:46;;;;;;;6.90;3.75;;;7.00;91.20;;;;;;4983968;28;20034;-75
2021/10/14 02:09:12;;;;;;;8.25;4.30;;;7.00;91.20;;;;;;4983205;28;20027;-74
2021/10/14 02:11:38;;;;;;;10.13;5.00;;;7.00;91.30;;;;;;4982865;28;20333;-75
2021/10/14 02:14:04;;;;;;;9.52;4.32;;;7.00;91.30;;;;;;4982404;28;20034;-74
2021/10/14 02:16:30;;;;;;;8.55;4.22;;;7.00;91.30;;;;;;4982772;28;20027;-75
2021/10/14 02:18:56;;;;;;;7.28;4.38;;;7.00;91.30;;;;;;4982842;28;20214;-74
2021/10/14 02:21:21;;;;;;;9.55;4.40;;;7.00;91.30;;;;;;4983726;28;20289;-74
2021/10/14 02:23:47;;;;;;;7.95;3.85;;;7.00;91.40;;;;;;4983388;28;20023;-74
2021/10/14 02:26:13;;;;;;;11.73;4.75;;;7.00;91.30;;;;;;4983720;28;20162;-75
2021/10/14 02:28:39;;;;;;;10.00;4.72;;;7.00;91.30;;;;;;4984620;28;20026;-74
2021/10/14 02:31:04;;;;;;;9.27;4.72;;;7.10;91.50;;;;;;4967527;28;20026;-75
2021/10/14 02:33:30;;;;;;;11.48;4.43;;;7.10;91.40;;;;;;4984355;28;20031;-74
2021/10/14 02:35:56;;;;;;;10.55;4.05;;;7.10;91.60;;;;;;4984490;28;20038;-74
2021/10/14 02:38:22;;;;;;;7.90;3.75;;;7.10;91.40;;;;;;4983198;28;20035;-75
2021/10/14 02:40:48;;;;;;;11.32;4.72;;;7.00;91.50;;;;;;4984498;28;20086;-75
2021/10/14 02:43:13;;;;;;;11.45;4.63;;;7.00;91.70;;;;;;4984200;28;20428;-75
2021/10/14 02:45:39;;;;;;;7.38;4.13;;;7.10;91.80;;;;;;4982336;28;20093;-74
2021/10/14 02:48:05;;;;;;;9.82;4.28;;;7.10;91.70;;;;;;4983099;28;20034;-75
2021/10/14 02:50:31;;;;;;;8.50;4.10;;;7.10;91.70;;;;;;4984280;28;20062;-75
2021/10/14 02:52:57;;;;;;;9.55;4.15;;;7.10;91.70;;;;;;4982669;28;20039;-75
2021/10/14 02:55:22;;;;;;;9.25;4.55;;;7.20;91.80;;;;;;4966872;28;20461;-74
2021/10/14 02:57:48;;;;;;;9.02;4.15;;;7.10;92.00;;;;;;4999109;28;20093;-74
2021/10/14 03:00:14;;;;;;;9.13;4.10;;;7.20;91.90;;;;;;4966895;28;20027;-74
2021/10/14 03:17:05;;;;;;;7.63;4.28;;;7.20;91.90;;;;;;4982546;28;19993;-74
2021/10/14 03:19:31;;;;;;;7.25;4.20;;;7.30;91.90;;;;;;4981691;28;20031;-75
2021/10/14 03:21:57;;;;;;;8.32;4.35;;;7.20;91.90;;;;;;4998800;28;20046;-74
2021/10/14 03:24:22;;;;;;;8.68;4.55;;;7.20;92.00;;;;;;4982179;28;20085;-74
2021/10/14 03:26:48;;;;;;;6.95;4.10;;;7.30;92.00;;;;;;4982494;28;20033;-74
2021/10/14 03:29:14;;;;;;;7.55;4.15;;;7.20;91.90;;;;;;4982595;28;20031;-75
2021/10/14 03:31:40;;;;;;;8.45;4.70;;;7.20;91.90;;;;;;4983583;28;20031;-75
2021/10/14 03:34:06;;;;;;;10.05;4.82;;;7.20;91.80;;;;;;4982180;28;20037;-74
2021/10/14 03:36:31;;;;;;;9.75;4.28;;;7.20;92.00;;;;;;4982407;28;20033;-74
2021/10/14 03:38:58;;;;;;;8.38;4.45;;;7.10;91.80;;;;;;4982148;28;20033;-75
2021/10/14 03:41:24;;;;;;;9.60;4.45;;;7.10;91.90;;;;;;4983370;28;20044;-74
2021/10/14 03:43:49;;;;;;;7.65;3.95;;;7.10;91.90;;;;;;4965994;28;20038;-74
2021/10/14 03:46:15;;;;;;;8.63;3.88;;;7.00;91.90;;;;;;4966376;28;20038;-74
2021/10/14 03:48:41;;;;;;;6.90;4.00;;;7.00;92.10;;;;;;4982213;28;20037;-74
2021/10/14 03:51:07;;;;;;;9.90;4.82;;;7.10;92.20;;;;;;4983398;28;20274;-75
2021/10/14 03:53:33;;;;;;;9.07;4.70;;;7.00;92.10;;;;;;4981717;28;20073;-74
2021/10/14 03:55:58;;;;;;;10.88;5.07;;;7.00;92.20;;;;;;4982041;28;20031;-75
2021/10/14 03:58:24;;;;;;;10.13;4.60;;;7.00;92.20;;;;;;4981998;28;20048;-75
2021/10/14 04:16:33;;;;;;;8.98;4.85;;;7.00;92.60;;;;;;4985920;28;20065;-75
2021/10/14 04:18:59;;;;;;;11.57;4.97;;;7.00;92.80;;;;;;4984897;28;20333;-75
2021/10/14 04:21:25;;;;;;;11.20;4.30;;;7.00;92.70;;;;;;4985940;28;20029;-74
2021/10/14 04:23:51;;;;;;;10.13;5.25;;;7.00;92.90;;;;;;4985434;28;20042;-75
2021/10/14 04:26:17;;;;;;;9.82;4.95;;;7.00;93.00;;;;;;4985768;28;20058;-75
2021/10/14 04:28:43;;;;;;;11.10;5.10;;;6.90;93.00;;;;;;4969650;28;20042;-74
2021/10/14 04:31:09;;;;;;;15.88;4.93;;;7.00;93.20;;;;;;4985802;28;20033;-74
2021/10/14 04:33:34;;;;;;;11.20;5.15;;;7.10;93.10;;;;;;4985373;28;20057;-74
2021/10/14 04:36:04;;;;;;;11.02;5.75;;;7.10;93.20;;;;;;4969498;28;20214;-74
2021/10/14 04:38:30;;;;;;;11.05;5.55;;;7.10;93.40;;;;;;4985224;28;20318;-74
2021/10/14 04:40:56;;;;;;;12.27;5.38;;;7.00;93.50;;;;;;4969344;28;20062;-75
2021/10/14 04:43:23;;;;;;;12.63;5.63;;;7.10;93.50;;;;;;4985167;28;20027;-75
2021/10/14 04:45:50;;;;;;;9.05;5.18;;;7.10;93.20;;;;;;4985485;28;20050;-75
2021/10/14 04:48:16;;;;;;;13.38;6.35;;;7.20;93.50;;;;;;4984102;28;20088;-75
2021/10/14 04:50:42;;;;;;;17.48;6.30;;;7.20;93.70;;;;;;4985461;28;20026;-75
2021/10/14 04:53:08;;;;;;;14.32;6.22;;;7.20;93.80;;;;;;4985066;28;20054;-75
2021/10/14 04:55:34;;;;;;;13.00;6.18;;;7.30;93.80;;;;;;4985125;28;20081;-75
2021/10/14 04:58:00;;;;;;;13.82;6.72;;;7.30;93.80;;;;;;4985224;28;20023;-75
2021/10/14 05:00:26;;;;;;;15.23;7.78;;;7.40;93.80;;;;;;4969161;28;20333;-75
2021/10/14 05:02:52;;;;;;;18.60;8.10;;;7.30;93.90;;;;;;4985847;28;20023;-76
2021/10/14 05:05:18;;;;;;;18.92;7.90;;;7.40;93.90;;;;;;4984803;28;20102;-75
2021/10/14 05:07:43;;;;;;;19.95;7.72;;;7.40;93.80;;;;;;4984879;28;20034;-75
2021/10/14 05:10:09;;;;;;;18.08;8.60;;;7.30;93.90;;;;;;4968583;28;20341;-75
2021/10/14 05:12:35;;;;;;;17.77;7.60;;;7.40;93.60;;;;;;4968936;28;20082;-75
2021/10/14 05:15:11;;;;;;;18.77;8.60;;;7.40;94.00;;;;;;4984476;28;20019;-74
2021/10/14 05:17:37;;;;;;;22.98;8.65;;;7.40;93.90;;;;;;4983566;28;20034;-75
2021/10/14 05:20:04;;;;;;;21.83;9.68;;;7.40;93.90;;;;;;4968428;28;20030;-75
2021/10/14 05:22:30;;;;;;;21.25;9.15;;;7.40;93.70;;;;;;4984790;28;20081;-74
2021/10/14 05:24:56;;;;;;;21.05;9.15;;;7.50;93.80;;;;;;4977945;28;20023;-75
2021/10/14 05:27:21;;;;;;;23.48;9.15;;;7.40;93.80;;;;;;4964740;28;20019;-74
2021/10/14 05:29:47;;;;;;;29.60;12.75;;;7.50;93.80;;;;;;4965309;29;20054;-74
2021/10/14 05:32:13;;;;;;;26.48;11.88;;;7.60;93.50;;;;;;4965139;29;20393;-75
2021/10/14 05:34:39;;;;;;;21.25;9.75;;;7.60;93.60;;;;;;4964698;28;20050;-75
2021/10/14 05:37:05;;;;;;;21.23;9.23;;;7.50;93.50;;;;;;4932976;29;20034;-75
2021/10/14 05:39:31;;;;;;;18.30;8.18;;;7.60;93.60;;;;;;4981182;28;20030;-75
2021/10/14 05:41:57;;;;;;;21.30;9.60;;;7.60;93.60;;;;;;4965078;28;20038;-75
2021/10/14 05:44:22;;;;;;;23.27;9.15;;;7.60;93.40;;;;;;4965081;28;20389;-75
2021/10/14 05:46:48;;;;;;;17.88;8.57;;;7.50;93.70;;;;;;4984006;28;20026;-74
2021/10/14 05:49:14;;;;;;;17.77;8.35;;;7.50;93.60;;;;;;4984259;28;20022;-74
2021/10/14 05:51:40;;;;;;;23.05;8.32;;;7.50;93.80;;;;;;4985343;28;20023;-74
2021/10/14 05:54:06;;;;;;;24.02;9.88;;;7.50;93.80;;;;;;4984066;28;20344;-74
2021/10/14 05:56:31;;;;;;;22.55;9.20;;;7.50;93.80;;;;;;4985154;28;20150;-75
2021/10/14 05:58:57;;;;;;;19.70;9.38;;;7.50;93.70;;;;;;4985134;28;20085;-73
2021/10/14 06:01:23;;;;;;;21.50;9.88;;;7.60;94.10;;;;;;4984048;28;20030;-74
2021/10/14 06:03:49;;;;;;;20.05;9.52;;;7.60;93.80;;;;;;4984440;28;20034;-74
2021/10/14 06:06:15;;;;;;;22.33;10.35;;;7.60;93.80;;;;;;4985297;28;20022;-73
2021/10/14 06:08:40;;;;;;;21.02;9.18;;;7.60;94.00;;;;;;4984595;28;20040;-74
2021/10/14 06:11:06;;;;;;;23.65;9.98;;;7.60;94.10;;;;;;4984376;28;20023;-74
2021/10/14 06:13:35;;;;;;;20.63;9.85;;;7.60;94.00;;;;;;4984676;28;20369;-74
2021/10/14 06:16:01;;;;;;;20.25;10.38;;;7.70;94.00;;;;;;4983800;28;20068;-69
2021/10/14 06:18:27;;;;;;;25.25;10.70;;;7.70;94.00;;;;;;4967336;28;20074;-72
2021/10/14 06:20:53;;;;;;;21.75;9.57;;;7.80;94.00;;;;;;4979222;28;20027;-71
2021/10/14 06:23:19;;;;;;;21.42;9.88;;;7.80;94.00;;;;;;4964944;28;20077;-72
2021/10/14 06:25:45;;;;;;;21.92;9.88;;;7.70;94.20;;;;;;4961592;29;20211;-73
2021/10/14 06:28:11;;;;;;;27.98;12.25;;;7.70;94.20;;;;;;4963558;28;20039;-76
2021/10/14 06:30:36;;;;;;;21.90;10.70;;;7.70;94.30;;;;;;4947969;29;20066;-74
2021/10/14 06:33:02;;;;;;;22.73;9.88;;;7.70;94.40;;;;;;4979738;28;20031;-73
2021/10/14 06:35:28;;;;;;;18.67;9.23;;;7.70;94.30;;;;;;4947894;29;20062;-74
2021/10/14 06:37:55;;;;;;;22.73;9.40;;;7.70;94.30;;;;;;4947680;29;20023;-76
2021/10/14 06:40:21;;;;;;;22.92;10.73;;;7.70;94.30;;;;;;4947818;28;20027;-76
2021/10/14 06:42:47;;;;;;;22.50;10.82;;;7.80;94.30;;;;;;4959417;28;20031;-74
2021/10/14 06:45:13;;;;;;;22.52;11.52;;;7.80;94.50;;;;;;4936338;29;20035;-76
2021/10/14 06:47:39;;;;;;;26.50;12.02;;;7.80;94.20;;;;;;4947751;29;20363;-71
2021/10/14 06:50:05;;;;;;;23.02;10.63;;;7.80;94.10;;;;;;4964265;28;20023;-75
2021/10/14 06:52:32;;;;;;;22.15;11.32;;;7.90;94.10;;;;;;4916138;29;20027;-75
2021/10/14 06:54:58;;;;;;;21.45;9.55;;;7.90;94.10;;;;;;4915609;29;20094;-78
2021/10/14 06:57:25;;;;;;;22.20;9.70;;;7.90;94.30;;;;;;4912552;29;20148;-75
2021/10/14 06:59:51;;;;;;;24.80;10.23;;;7.90;94.30;;;;;;4944372;29;20024;-77
2021/10/14 07:02:17;;;;;;;20.67;10.30;;;7.90;94.30;;;;;;4927990;29;20042;-74
2021/10/14 07:04:43;;;;;;;24.38;10.15;;;8.00;94.30;;;;;;4911859;29;20032;-73
2021/10/14 07:07:09;;;;;;;20.25;10.27;;;8.00;94.30;;;;;;4928200;29;20035;-73
2021/10/14 07:09:34;;;;;;;23.73;10.32;;;8.00;94.60;;;;;;4928338;29;20024;-75
2021/10/14 07:12:08;;;;;;;24.73;11.23;;;8.10;94.60;;;;;;4943957;29;20054;-74
2021/10/14 07:14:34;;;;;;;20.17;10.68;;;8.10;94.50;;;;;;4938613;28;20090;-73
2021/10/14 07:17:00;;;;;;;21.38;11.02;;;8.20;94.50;;;;;;4964782;28;20091;-73
2021/10/14 07:19:25;;;;;;;25.75;10.15;;;8.10;94.50;;;;;;4955182;28;20214;-74
2021/10/14 07:21:51;;;;;;;22.30;10.02;;;8.20;94.40;;;;;;4946940;29;20023;-76
2021/10/14 07:24:19;;;;;;;23.00;11.45;;;8.20;94.30;;;;;;4962474;28;20345;-76
2021/10/14 07:26:45;;;;;;;22.35;10.13;;;8.20;94.20;;;;;;4916098;28;20027;-74
2021/10/14 07:29:11;;;;;;;20.50;11.07;;;8.20;94.40;;;;;;4946919;29;20027;-75
2021/10/14 07:31:37;;;;;;;26.03;12.20;;;8.20;94.40;;;;;;4947231;29;20086;-74
2021/10/14 07:34:02;;;;;;;23.20;10.70;;;8.20;94.20;;;;;;4930218;29;20283;-73
2021/10/14 07:36:28;;;;;;;26.55;11.80;;;8.20;94.20;;;;;;4945455;29;20034;-76
2021/10/14 07:38:54;;;;;;;28.73;14.30;;;8.20;94.20;;;;;;4945006;29;20322;-75
2021/10/14 07:41:20;;;;;;;27.13;11.82;;;8.20;94.20;;;;;;4962110;28;20050;-74
2021/10/14 07:43:46;;;;;;;22.30;12.20;;;8.20;94.30;;;;;;4942697;29;20024;-73
2021/10/14 07:46:11;;;;;;;24.92;12.25;;;8.10;94.50;;;;;;4970447;28;20445;-75
2021/10/14 07:48:37;;;;;;;25.60;12.20;;;8.10;94.70;;;;;;4982264;28;20030;-69
2021/10/14 07:51:04;;;;;;;24.38;11.82;;;8.10;94.70;;;;;;4970688;28;20065;-69
2021/10/14 07:53:29;;;;;;;23.02;12.50;;;8.20;94.70;;;;;;4961910;28;20046;-69
2021/10/14 07:55:55;;;;;;;27.38;12.85;;;8.20;94.60;;;;;;4963782;28;20031;-69
2021/10/14 07:58:21;;;;;;;27.92;13.43;;;8.20;94.50;;;;;;4962612;28;20026;-69
2021/10/14 08:00:47;;;;;;;28.58;12.15;;;8.20;94.90;;;;;;4946549;29;20019;-69
2021/10/14 08:03:13;;;;;;;23.33;11.70;;;8.20;94.80;;;;;;4945750;29;20045;-70
2021/10/14 08:05:39;;;;;;;25.38;13.68;;;8.20;94.90;;;;;;4946460;29;20338;-70
2021/10/14 08:08:05;;;;;;;27.50;14.88;;;8.20;94.90;;;;;;4962496;28;20094;-70
2021/10/14 08:10:31;;;;;;;30.25;13.23;;;8.20;94.90;;;;;;4962467;29;20279;-70
2021/10/14 08:12:57;;;;;;;27.25;12.27;;;8.20;95.00;;;;;;4946321;29;20349;-70
2021/10/14 08:15:23;;;;;;;29.57;12.83;;;8.20;95.10;;;;;;4947100;29;20035;-70
2021/10/14 08:17:49;;;;;;;28.65;12.65;;;8.20;95.20;;;;;;4960561;28;20023;-70
2021/10/14 08:20:15;;;;;;;28.48;13.23;;;8.20;95.20;;;;;;4961807;29;20038;-70
2021/10/14 08:22:41;;;;;;;24.75;14.25;;;8.30;95.30;;;;;;4946673;29;20058;-70
2021/10/14 08:25:09;;;;;;;26.20;14.30;;;8.30;95.10;;;;;;4963222;28;20492;-70
2021/10/14 08:27:35;;;;;;;28.35;12.93;;;8.30;95.20;;;;;;4946453;28;20031;-70
2021/10/14 08:30:03;;;;;;;26.67;13.90;;;8.20;95.40;;;;;;4963619;28;20262;-70
2021/10/14 08:32:28;;;;;;;21.88;11.77;;;8.30;95.30;;;;;;4962358;28;20062;-70
2021/10/14 08:34:55;;;;;;;25.27;12.48;;;8.30;95.40;;;;;;4961849;28;20322;-70
2021/10/14 08:37:21;;;;;;;23.63;11.40;;;8.30;95.50;;;;;;4962228;28;20026;-70
2021/10/14 08:39:51;;;;;;;24.63;12.50;;;8.40;95.40;;;;;;4946055;29;20027;-70
2021/10/14 08:42:17;;;;;;;27.33;13.65;;;8.40;95.40;;;;;;4962286;28;20023;-70
2021/10/14 08:44:43;;;;;;;29.88;14.32;;;8.40;95.50;;;;;;4946267;29;20031;-70
2021/10/14 08:47:11;;;;;;;29.92;15.80;;;8.40;95.60;;;;;;4947511;28;20042;-70
2021/10/14 08:49:37;;;;;;;25.15;13.13;;;8.40;95.70;;;;;;4976702;28;20035;-69
2021/10/14 08:52:03;;;;;;;20.48;10.75;;;8.40;95.50;;;;;;4982871;28;20348;-70
2021/10/14 08:54:29;;;;;;;22.42;11.27;;;8.50;95.50;;;;;;4985166;28;20028;-70
2021/10/14 08:56:54;;;;;;;28.35;12.93;;;8.50;95.40;;;;;;5001075;28;20139;-70
2021/10/14 08:59:20;;;;;;;25.27;12.10;;;8.50;95.50;;;;;;4985071;28;20030;-70
2021/10/14 09:02:08;;;;;;;24.83;11.90;;;8.60;95.60;;;;;;4985156;28;20030;-70
2021/10/14 09:04:57;;;;;;;22.45;11.00;;;8.50;95.40;;;;;;4985571;28;20027;-70
2021/10/14 09:07:27;;;;;;;20.50;9.43;;;8.50;95.50;;;;;;4985062;28;20038;-70
2021/10/14 09:09:54;;;;;;;22.13;10.77;;;8.50;95.60;;;;;;4984922;28;20027;-70
2021/10/14 09:12:22;;;;;;;19.30;9.90;;;8.60;95.60;;;;;;4984660;28;20217;-70
2021/10/14 09:15:08;;;;;;;18.98;9.95;;;8.60;95.50;;;;;;4984748;28;20041;-70
2021/10/14 09:17:55;;;;;;;18.08;9.95;;;8.60;95.30;;;;;;4975848;28;20066;-70
2021/10/14 09:20:24;;;;;;;15.02;8.43;;;8.60;95.40;;;;;;4971607;28;20030;-70
2021/10/14 09:23:03;;;;;;;15.63;8.70;;;8.70;95.30;;;;;;4947256;29;20218;-70
2021/10/14 09:25:49;;;;;;;15.80;7.93;;;8.70;95.30;;;;;;4961864;29;20077;-69
2021/10/14 09:28:24;;;;;;;13.05;7.18;;;8.80;95.20;;;;;;4960643;28;20023;-70
2021/10/14 09:31:07;;;;;;;14.68;7.40;;;8.80;94.90;;;;;;4961767;29;20020;-70
2021/10/14 09:33:42;;;;;;;14.88;7.88;;;8.80;94.70;;;;;;4960942;28;20028;-70
2021/10/14 09:36:27;;;;;;;12.85;7.38;;;8.90;94.80;;;;;;4961847;29;20310;-70
2021/10/14 09:39:02;;;;;;;14.90;8.65;;;8.90;95.00;;;;;;4961650;28;20043;-70
2021/10/14 09:41:28;;;;;;;15.02;7.10;;;8.90;94.50;;;;;;4945976;29;20031;-70
2021/10/14 09:43:57;;;;;;;15.77;7.87;;;8.90;94.60;;;;;;4961160;29;20024;-70
2021/10/14 09:46:37;;;;;;;15.70;8.77;;;9.00;94.70;;;;;;4945922;29;20228;-70
2021/10/14 09:49:11;;;;;;;13.27;7.95;;;9.00;94.80;;;;;;4955877;28;20094;-70
2021/10/14 09:51:37;;;;;;;14.25;8.20;;;9.10;94.60;;;;;;4972374;28;20042;-70
2021/10/14 09:54:03;;;;;;;14.73;8.85;;;9.00;94.40;;;;;;4948635;29;20278;-70
2021/10/14 09:56:29;;;;;;;16.27;8.30;;;9.10;94.30;;;;;;4964915;28;20034;-70
2021/10/14 09:58:57;;;;;;;12.75;7.75;;;9.10;94.50;;;;;;4948575;29;20047;-70
2021/10/14 10:01:26;;;;;;;16.73;9.10;;;9.10;94.10;;;;;;4965801;28;20030;-70
2021/10/14 10:03:52;;;;;;;20.38;9.63;;;9.10;94.20;;;;;;4963268;28;20023;-70
2021/10/14 10:06:22;;;;;;;24.10;10.48;;;9.10;94.30;;;;;;4964340;28;20368;-70
2021/10/14 10:08:48;;;;;;;22.73;10.23;;;9.20;94.20;;;;;;4948929;29;20043;-70
2021/10/14 10:11:16;;;;;;;16.80;10.13;;;9.20;94.10;;;;;;4964458;28;20040;-70
2021/10/14 10:13:49;;;;;;;17.75;9.32;;;9.30;94.20;;;;;;4932443;29;20046;-70
2021/10/14 10:16:19;;;;;;;19.30;10.38;;;9.20;94.20;;;;;;4948824;29;20226;-70
2021/10/14 10:18:59;;;;;;;16.02;8.90;;;9.30;94.30;;;;;;4947588;28;20027;-70
2021/10/14 10:21:31;;;;;;;15.55;8.55;;;9.30;94.10;;;;;;4954673;29;20045;-70
2021/10/14 10:24:01;;;;;;;17.17;9.65;;;9.30;93.80;;;;;;4945856;28;20034;-70
2021/10/14 10:26:35;;;;;;;16.75;9.90;;;9.40;94.00;;;;;;4958523;28;20061;-70
2021/10/14 10:29:17;;;;;;;20.55;10.48;;;9.40;94.10;;;;;;4965023;28;20027;-70
2021/10/14 10:31:51;;;;;;;19.70;9.88;;;9.40;93.90;;;;;;4965555;28;20031;-78
2021/10/14 10:40:16;;;;;;;18.80;9.55;;;9.50;93.70;;;;;;4950770;29;20023;-77
2021/10/14 10:43:06;;;;;;;15.63;9.30;;;9.50;93.80;;;;;;4948011;29;20027;-77
2021/10/14 10:46:05;;;;;;;16.27;7.93;;;9.60;93.80;;;;;;4963419;29;20098;-78
2021/10/14 10:48:36;;;;;;;17.90;8.07;;;9.60;93.60;;;;;;4966261;28;20027;-78
2021/10/14 10:51:03;;;;;;;16.23;8.82;;;9.60;93.30;;;;;;4936670;29;20019;-77
2021/10/14 10:53:40;;;;;;;13.93;8.13;;;9.70;93.40;;;;;;4959650;29;20031;-77
2021/10/14 10:56:07;;;;;;;15.07;8.25;;;9.70;93.10;;;;;;4944011;29;20368;-77
2021/10/14 10:58:45;;;;;;;17.10;7.25;;;9.70;93.50;;;;;;4944382;29;20374;-78
2021/10/14 11:01:16;;;;;;;18.73;8.82;;;9.80;93.10;;;;;;4943899;29;20086;-79
2021/10/14 11:04:04;;;;;;;18.27;8.15;;;9.80;92.60;;;;;;4959112;29;20028;-79
2021/10/14 11:06:31;;;;;;;14.95;7.50;;;9.80;92.70;;;;;;4959788;29;20027;-78
2021/10/14 11:09:11;;;;;;;10.35;5.57;;;9.80;92.00;;;;;;4943781;29;20039;-76
2021/10/14 11:11:37;;;;;;;9.18;5.43;;;9.80;91.30;;;;;;4944246;29;20099;-78
2021/10/14 11:14:03;;;;;;;14.60;6.23;;;9.80;91.70;;;;;;4944213;29;20046;-79
2021/10/14 11:16:29;;;;;;;12.23;5.57;;;9.90;91.30;;;;;;4960189;29;20050;-75
2021/10/14 11:18:56;;;;;;;10.65;6.18;;;9.80;91.70;;;;;;4948717;29;20019;-76
2021/10/14 11:21:24;;;;;;;10.90;5.47;;;9.90;91.60;;;;;;4933733;28;20123;-71
2021/10/14 11:23:58;;;;;;;9.75;4.40;;;9.90;90.90;;;;;;4943960;29;20031;-77
2021/10/14 11:26:35;;;;;;;11.25;4.03;;;9.90;90.40;;;;;;4943457;29;20103;-76
2021/10/14 11:29:12;;;;;;;11.85;4.50;;;9.90;90.40;;;;;;4959176;28;20082;-76
2021/10/14 11:31:43;;;;;;;8.38;4.60;;;9.90;90.90;;;;;;4943909;29;20031;-79
2021/10/14 11:34:14;;;;;;;9.68;4.68;;;9.90;89.70;;;;;;4943225;29;20028;-77
2021/10/14 11:36:55;;;;;;;10.60;4.20;;;9.90;90.20;;;;;;4927926;29;20091;-77
2021/10/14 11:39:45;;;;;;;12.80;5.53;;;10.00;90.40;;;;;;4943900;29;20307;-75
2021/10/14 11:42:20;;;;;;;8.20;4.50;;;10.00;90.70;;;;;;4943581;29;20031;-77
2021/10/14 11:44:52;;;;;;;7.93;4.30;;;10.10;90.80;;;;;;4972114;28;20330;-75
2021/10/14 11:47:22;;;;;;;8.90;5.30;;;10.10;90.10;;;;;;4982121;28;20034;-76
2021/10/14 11:50:00;;;;;;;9.43;4.40;;;10.10;90.20;;;;;;4972102;28;20038;-76
2021/10/14 11:52:25;;;;;;;8.82;5.20;;;10.10;90.30;;;;;;4946656;28;20035;-76
2021/10/14 11:54:51;;;;;;;6.43;4.03;;;10.20;89.60;;;;;;4950732;29;20023;-77
2021/10/14 11:57:17;;;;;;;8.87;4.50;;;10.10;90.20;;;;;;4943518;29;20043;-76
2021/10/14 11:59:43;;;;;;;10.85;5.40;;;10.10;90.50;;;;;;4927502;29;20086;-78
2021/10/14 12:02:14;;;;;;;10.80;4.68;;;10.10;90.60;;;;;;4943584;29;20028;-77
2021/10/14 12:04:53;;;;;;;9.90;4.93;;;10.10;90.40;;;;;;4943698;29;20039;-71
2021/10/14 12:07:25;;;;;;;11.68;4.97;;;10.10;90.60;;;;;;4944113;29;20139;-77
2021/10/14 12:09:52;;;;;;;8.57;5.65;;;10.00;90.90;;;;;;4943411;29;20034;-75
2021/10/14 12:12:26;;;;;;;9.32;5.22;;;10.10;91.10;;;;;;4942960;29;20059;-79
2021/10/14 12:15:07;;;;;;;7.70;4.82;;;10.10;91.70;;;;;;4927457;29;20043;-79
2021/10/14 12:17:47;;;;;;;8.77;5.10;;;10.10;91.10;;;;;;4927541;29;20074;-79
2021/10/14 12:20:19;;;;;;;8.18;4.97;;;10.10;91.20;;;;;;4967802;28;20090;-78
2021/10/14 12:22:59;;;;;;;9.63;5.30;;;10.20;91.40;;;;;;4968395;28;20230;-77
2021/10/14 12:25:34;;;;;;;12.18;6.13;;;10.30;91.60;;;;;;4936095;29;20320;-78
2021/10/14 12:28:00;;;;;;;9.18;5.53;;;10.30;91.60;;;;;;4946565;29;20055;-77
2021/10/14 12:30:37;;;;;;;10.00;4.82;;;10.30;91.80;;;;;;4947204;29;20027;-77
2021/10/14 12:33:12;;;;;;;10.73;5.63;;;10.30;91.60;;;;;;4946397;29;20297;-77
2021/10/14 12:35:56;;;;;;;8.98;5.75;;;10.40;91.70;;;;;;4962686;28;20046;-77
2021/10/14 12:38:22;;;;;;;11.40;5.55;;;10.30;92.00;;;;;;4945786;29;20038;-77
2021/10/14 12:41:05;;;;;;;11.82;5.30;;;10.30;92.10;;;;;;4946986;29;20028;-77
2021/10/14 12:44:01;;;;;;;9.68;5.13;;;10.30;92.50;;;;;;4945817;29;20043;-77
2021/10/14 12:51:51;;;;;;;11.67;6.37;;;10.40;92.40;;;;;;4985270;28;20101;-78
2021/10/14 12:54:19;;;;;;;8.68;5.90;;;10.40;92.60;;;;;;4962727;28;20127;-78
2021/10/14 12:56:48;;;;;;;18.00;7.90;;;10.40;92.50;;;;;;4965484;28;20242;-77
2021/10/14 12:59:16;;;;;;;13.32;6.10;;;10.50;92.40;;;;;;4981664;28;20023;-81
2021/10/14 13:01:45;;;;;;;10.80;6.22;;;10.50;92.60;;;;;;4967720;28;20054;-81
2021/10/14 13:04:11;;;;;;;12.40;6.57;;;10.50;92.50;;;;;;4968751;29;20023;-80
2021/10/14 13:06:37;;;;;;;15.10;7.23;;;10.50;92.70;;;;;;4970445;28;20046;-81
2021/10/14 13:09:04;;;;;;;10.68;6.82;;;10.50;92.90;;;;;;4966314;28;20110;-76
2021/10/14 13:11:33;;;;;;;12.73;7.25;;;10.50;93.10;;;;;;4981876;28;20027;-76
2021/10/14 13:14:00;;;;;;;11.80;7.57;;;10.50;92.70;;;;;;4964338;29;20045;-76
2021/10/14 13:16:26;;;;;;;;;;;10.40;93.00;;;;;;4965645;28;20034;-76
2021/10/14 13:18:51;;;;;;;11.30;5.65;;;10.40;92.50;;;;;;4948699;28;20236;-75
2021/10/14 13:21:17;;;;;;;9.07;5.28;;;10.40;91.90;;;;;;4984783;28;20268;-78
2021/10/14 13:23:43;;;;;;;13.40;5.17;;;10.40;92.00;;;;;;4981041;28;20330;-78
2021/10/14 13:26:09;;;;;;;11.70;5.50;;;10.30;91.90;;;;;;4937449;28;20024;-77
2021/10/14 13:28:36;;;;;;;7.93;5.03;;;10.30;91.40;;;;;;4959532;28;20053;-74
2021/10/14 13:31:04;;;;;;;8.63;5.40;;;10.30;91.60;;;;;;4945945;29;20315;-75
2021/10/14 13:33:31;;;;;;;9.95;5.22;;;10.30;91.80;;;;;;4945746;29;20056;-78
2021/10/14 13:35:58;;;;;;;15.50;6.15;;;10.30;92.10;;;;;;4945912;29;20259;-77